WetterOnline ( http://www.wetteronline.de )

Wetter aktuell Erzgebirge/Ost (in 800m)

Aktuelles Wetter: Zinnwald (882m)

6-stündlich | Neueste Meldungen
Ortszeit Temperatur Wetter
Sa, 18.08. 14:00 19.7° C wolkenlos
Sa, 18.08. 8:00 14.3° C Nebel
Sa, 18.08. 2:00 13.6° C Regen
Fr, 17.08. 20:00 22.2° C leicht bewölkt
Fr, 17.08. 14:00 23.5° C bewölkt
Fr, 17.08. 8:00 19.3° C wolkenlos
Fr, 17.08. 2:00 16.4° C wolkenlos
Do, 16.08. 20:00 20.5° C wolkenlos
Ortszeit Temperatur Wetter
Sa, 18.08. 14:10 20.3° C leicht bewölkt
Sa, 18.08. 14:00 19.7° C wolkenlos
Sa, 18.08. 13:50 19.7° C wolkenlos
Sa, 18.08. 13:40 19.6° C wolkenlos
Sa, 18.08. 13:30 19.2° C wolkenlos
Sa, 18.08. 13:20 19.2° C wolkenlos
Sa, 18.08. 13:00 18.3° C fast wolkenlos
Sa, 18.08. 12:30 17.4° C bewölkt
Sa, 18.08. 12:00 16.7° C bedeckt
Sa, 18.08. 11:30 15.1° C bedeckt
Sa, 18.08. 11:00 15.1° C bedeckt
Ortszeit Relative Feuchte Sichtweite
Sa, 18.08. 14:00 71% 35 km
Sa, 18.08. 8:00 96% 0.3 km
Sa, 18.08. 2:00 91% 4.4 km
Fr, 17.08. 20:00 46% 40 km
Fr, 17.08. 14:00 43% 40 km
Fr, 17.08. 8:00 54% 50 km
Fr, 17.08. 2:00 55% 55 km
Do, 16.08. 20:00 48% 65 km
Ortszeit Relative Feuchte Sichtweite
Sa, 18.08. 14:10 65% -
Sa, 18.08. 14:00 71% 35 km
Sa, 18.08. 13:50 71% -
Sa, 18.08. 13:40 67% -
Sa, 18.08. 13:30 72% 20 km
Sa, 18.08. 13:20 72% -
Sa, 18.08. 13:00 72% 20 km
Sa, 18.08. 12:30 79% 29 km
Sa, 18.08. 12:00 85% 17 km
Sa, 18.08. 11:30 90% 8 km
Sa, 18.08. 11:00 90% 8 km
Ortszeit Niederschlagsmenge Niederschlagsart
Sa, 18.08. 14:00 0.0 l/m2 in 6 Std. -
Sa, 18.08. 8:00 8 l/m2 in 12 Std. Regen
Sa, 18.08. 2:00 4 l/m2 in 6 Std. Regen
Fr, 17.08. 20:00 0.0 l/m2 in 12 Std. -
Fr, 17.08. 14:00 0.0 l/m2 in 6 Std. -
Fr, 17.08. 8:00 0.0 l/m2 in 12 Std. -
Fr, 17.08. 2:00 0.0 l/m2 in 6 Std. -
Do, 16.08. 20:00 0.0 l/m2 in 12 Std. -
Ortszeit Niederschlagsmenge Niederschlagsart
Sa, 18.08. 14:10 keine Meldung -
Sa, 18.08. 14:00 0.0 l/m2 in 1 Std. -
Sa, 18.08. 13:50 keine Meldung -
Sa, 18.08. 13:40 keine Meldung -
Sa, 18.08. 13:30 0.0 l/m2 in 1 Std. -
Sa, 18.08. 13:20 keine Meldung -
Sa, 18.08. 13:00 0.0 l/m2 in 1 Std. -
Sa, 18.08. 12:30 0.0 l/m2 in 1 Std. -
Sa, 18.08. 12:00 0.0 l/m2 in 1 Std. -
Sa, 18.08. 11:30 0.0 l/m2 in 1 Std. -
Sa, 18.08. 11:00 0.0 l/m2 in 1 Std. -
Ortszeit Stärke Spitze Richtung
km/h Bft. km/h Grad Sektor
Sa, 18.08. 14:00 7 2 25 30° NO
Sa, 18.08. 8:00 11 2 32 10° N
Sa, 18.08. 2:00 20 4 41 310° NW
Fr, 17.08. 20:00 7 2 25 200° S
Fr, 17.08. 14:00 6 1 24 230° SW
Fr, 17.08. 8:00 11 2 24 200° S
Fr, 17.08. 2:00 19 3 26 170° S
Do, 16.08. 20:00 7 2 32 140° SO
Ortszeit Stärke Spitze Richtung
km/h Bft. km/h Grad Sektor
Sa, 18.08. 14:10 9 2 - 20° N
Sa, 18.08. 14:00 7 2 18 30° NO
Sa, 18.08. 13:50 7 2 - 30° NO
Sa, 18.08. 13:40 9 2 - 50° NO
Sa, 18.08. 13:30 11 2 18 360° N
Sa, 18.08. 13:20 11 2 - 360° N
Sa, 18.08. 13:00 7 2 22 20° N
Sa, 18.08. 12:30 11 2 22 20° N
Sa, 18.08. 12:00 11 2 22 10° N
Sa, 18.08. 11:30 13 3 20 10° N
Sa, 18.08. 11:00 14 3 22 360° N
Ortszeit Untergrenze Bedeckung Gattung
total tief tief mittel hoch
Sa, 18.08. 14:00 - 0/8 0/8 - - -
Sa, 18.08. 8:00 <30 m 8/8 8/8 - - -
Sa, 18.08. 2:00 1800 m 8/8 8/8 - - -
Fr, 17.08. 20:00 2100 m 4/8 4/8 - - -
Fr, 17.08. 14:00 1800 m 7/8 7/8 - - -
Fr, 17.08. 8:00 - 0/8 0/8 - - -
Fr, 17.08. 2:00 - 0/8 0/8 - - -
Do, 16.08. 20:00 - 0/8 0/8 - - -
Ortszeit Bedeckungsgrad in Achtel und Wolkenuntergrenze
Sa, 18.08. 14:10 2(2700m)
Sa, 18.08. 14:00 keine Wolken
Sa, 18.08. 13:50 keine Wolken
Sa, 18.08. 13:40 keine Wolken
Sa, 18.08. 13:30 keine Wolken
Sa, 18.08. 13:20 keine Wolken
Sa, 18.08. 13:00 1(330m)
Sa, 18.08. 12:30 7(270m)
Sa, 18.08. 12:00 8(180m)
Sa, 18.08. 11:30 8(90m)
Sa, 18.08. 11:00 8(120m)
Ortszeit Stationsdruck (hPa) Tendenz (hPa in 3 Std.)
Sa, 18.08. 14:00 922 + 0,3
Sa, 18.08. 8:00 921 + 0,8
Sa, 18.08. 2:00 920 + 1,9
Fr, 17.08. 20:00 917 + 0,1
Fr, 17.08. 14:00 918 0,0
Fr, 17.08. 8:00 917 + 0,3
Fr, 17.08. 2:00 918 - 0,1
Do, 16.08. 20:00 918 - 0,5
Ortszeit Stationsdruck (hPa) Tendenz (hPa in 3 Std.)
Sa, 18.08. 14:10 922 keine Meldung
Sa, 18.08. 14:00 922 + 0,3
Sa, 18.08. 13:50 922 keine Meldung
Sa, 18.08. 13:40 922 keine Meldung
Sa, 18.08. 13:30 922 + 0,5
Sa, 18.08. 13:20 922 keine Meldung
Sa, 18.08. 13:00 922 + 0,7
Sa, 18.08. 12:30 922 + 0,9
Sa, 18.08. 12:00 922 + 1,1
Sa, 18.08. 11:30 922 + 1,3
Sa, 18.08. 11:00 922 + 1,4
Ortszeit Schneehöhe (cm)
Sa, 18.08. 14:00 -
Sa, 18.08. 8:00 -
Sa, 18.08. 2:00 -
Fr, 17.08. 20:00 -
Fr, 17.08. 14:00 -
Fr, 17.08. 8:00 -
Fr, 17.08. 2:00 -
Do, 16.08. 20:00 -
Ortszeit Schneehöhe (cm)
Sa, 18.08. 14:10 -
Sa, 18.08. 14:00 -
Sa, 18.08. 13:50 -
Sa, 18.08. 13:40 -
Sa, 18.08. 13:30 -
Sa, 18.08. 13:20 -
Sa, 18.08. 13:00 -
Sa, 18.08. 12:30 -
Sa, 18.08. 12:00 -
Sa, 18.08. 11:30 -
Sa, 18.08. 11:00 -
Link zu dieser Seite / Seite empfehlen

Das Wetter in ...